createdAt,value
2023-04-26T00:00:30.801Z,8.65
2023-04-26T00:03:00.582Z,9.57
2023-04-26T00:05:29.463Z,11.65
2023-04-26T00:07:59.200Z,12.27
2023-04-26T00:10:26.403Z,11.60
2023-04-26T00:12:53.221Z,11.77
2023-04-26T00:15:19.945Z,13.70
2023-04-26T00:17:50.580Z,11.63
2023-04-26T00:20:17.848Z,13.40
2023-04-26T00:22:44.556Z,13.98
2023-04-26T00:25:11.236Z,8.70
2023-04-26T00:27:57.656Z,13.23
2023-04-26T00:30:57.877Z,14.02
2023-04-26T00:33:28.458Z,9.27
2023-04-26T00:38:22.855Z,10.18
2023-04-26T00:40:51.142Z,11.40
2023-04-26T00:43:18.533Z,12.52
2023-04-26T00:45:45.460Z,13.43
2023-04-26T00:48:13.018Z,11.13
2023-04-26T00:50:39.746Z,14.82
2023-04-26T00:53:07.644Z,14.57
2023-04-26T00:55:34.666Z,15.15
2023-04-26T00:58:01.245Z,16.63
2023-04-26T01:00:27.969Z,17.85
2023-04-26T01:02:55.027Z,11.48
2023-04-26T01:05:21.861Z,13.57
2023-04-26T01:07:48.439Z,14.80
2023-04-26T01:10:15.055Z,13.30
2023-04-26T01:12:41.628Z,14.48
2023-04-26T01:15:10.203Z,16.15
2023-04-26T01:17:37.802Z,16.25
2023-04-26T01:20:05.839Z,16.13
2023-04-26T01:22:34.148Z,17.27
2023-04-26T01:25:04.320Z,12.88
2023-04-26T01:27:32.968Z,13.23
2023-04-26T01:29:59.524Z,17.38
2023-04-26T01:32:26.252Z,12.02
2023-04-26T01:34:52.813Z,13.23
2023-04-26T01:37:19.498Z,21.63
2023-04-26T01:39:46.540Z,17.83
2023-04-26T01:42:13.238Z,15.57
2023-04-26T01:44:39.845Z,18.30
2023-04-26T01:47:06.473Z,25.10
2023-04-26T01:49:33.227Z,24.02
2023-04-26T01:52:01.433Z,16.65
2023-04-26T01:54:28.061Z,19.83
2023-04-26T01:56:54.594Z,20.27
2023-04-26T01:59:21.241Z,22.52
2023-04-26T02:01:47.955Z,22.98
2023-04-26T02:04:14.700Z,17.88
2023-04-26T02:06:42.250Z,18.00
2023-04-26T02:09:11.591Z,22.00
2023-04-26T02:11:40.495Z,23.08
2023-04-26T02:14:07.207Z,20.80
2023-04-26T02:16:34.199Z,21.40
2023-04-26T02:19:01.009Z,24.10
2023-04-26T02:21:28.271Z,24.88
2023-04-26T02:23:55.357Z,18.27
2023-04-26T02:26:22.093Z,24.35
2023-04-26T02:28:48.737Z,20.15
2023-04-26T02:31:15.330Z,18.17
2023-04-26T02:33:41.934Z,22.55
2023-04-26T02:36:09.336Z,25.75
2023-04-26T02:38:36.530Z,18.38
2023-04-26T02:41:04.973Z,23.55
2023-04-26T02:43:36.542Z,20.20
2023-04-26T02:46:12.325Z,24.92
2023-04-26T02:48:38.881Z,24.58
2023-04-26T02:51:06.167Z,21.05
2023-04-26T02:53:32.801Z,27.13
2023-04-26T02:56:00.549Z,27.45
2023-04-26T02:58:32.719Z,27.23
2023-04-26T03:01:01.801Z,26.35
2023-04-26T03:03:29.290Z,25.75
2023-04-26T03:05:56.683Z,25.08
2023-04-26T03:08:23.277Z,27.23
2023-04-26T03:10:49.898Z,27.90
2023-04-26T03:13:16.833Z,25.48
2023-04-26T03:15:46.693Z,29.08
2023-04-26T03:18:13.410Z,30.13
2023-04-26T03:20:39.915Z,27.70
2023-04-26T03:23:07.472Z,31.50
2023-04-26T03:25:34.594Z,23.08
2023-04-26T03:28:01.387Z,26.15
2023-04-26T03:30:28.035Z,32.15
2023-04-26T03:32:55.737Z,24.17
2023-04-26T03:35:22.321Z,22.73
2023-04-26T03:37:50.387Z,20.25
2023-04-26T03:40:18.852Z,26.10
2023-04-26T03:42:46.011Z,27.90
2023-04-26T03:45:12.605Z,26.27
2023-04-26T03:47:39.321Z,26.38
2023-04-26T03:50:07.971Z,25.33
2023-04-26T03:52:34.752Z,28.95
2023-04-26T03:55:03.457Z,35.45
2023-04-26T03:57:30.273Z,27.33
2023-04-26T03:59:57.022Z,26.20
2023-04-26T04:02:24.047Z,27.67
2023-04-26T04:04:50.873Z,24.73
2023-04-26T04:07:17.962Z,30.45
2023-04-26T04:09:44.593Z,31.17
2023-04-26T04:12:11.534Z,37.17
2023-04-26T04:14:42.017Z,24.63
2023-04-26T04:17:11.850Z,33.88
2023-04-26T04:19:38.974Z,29.70
2023-04-26T04:22:07.030Z,29.90
2023-04-26T04:24:34.587Z,28.27
2023-04-26T04:27:01.643Z,33.53
2023-04-26T04:32:15.023Z,31.77
2023-04-26T04:34:43.110Z,27.52
2023-04-26T04:37:09.641Z,29.17
2023-04-26T04:39:36.545Z,32.63
2023-04-26T04:42:03.538Z,34.05
2023-04-26T04:44:30.363Z,38.47
2023-04-26T04:46:58.364Z,30.95
2023-04-26T04:49:25.070Z,30.00
2023-04-26T04:51:53.080Z,32.17
2023-04-26T04:54:20.043Z,42.17
2023-04-26T04:56:47.583Z,40.20
2023-04-26T04:59:15.931Z,38.85
2023-04-26T05:01:42.650Z,39.55
2023-04-26T05:04:13.698Z,39.60
2023-04-26T05:06:41.136Z,36.55
2023-04-26T05:09:08.489Z,40.25
2023-04-26T05:11:36.443Z,34.30
2023-04-26T05:14:06.567Z,40.60
2023-04-26T05:16:38.801Z,39.30
2023-04-26T05:19:07.970Z,37.55
2023-04-26T05:21:38.443Z,32.25
2023-04-26T05:24:07.271Z,45.15
2023-04-26T05:26:54.055Z,40.17
2023-04-26T05:29:42.197Z,47.42
2023-04-26T05:32:23.498Z,34.75
2023-04-26T05:35:03.758Z,33.90
2023-04-26T05:37:30.700Z,33.20
2023-04-26T05:39:57.416Z,32.17
2023-04-26T05:42:24.386Z,27.15
2023-04-26T05:44:51.410Z,25.42
2023-04-26T05:47:18.121Z,23.45
2023-04-26T05:49:45.250Z,29.10
2023-04-26T05:52:13.154Z,22.30
2023-04-26T05:54:39.687Z,25.27
2023-04-26T05:57:06.603Z,28.80
2023-04-26T05:59:36.562Z,22.17
2023-04-26T06:02:10.486Z,30.38
2023-04-26T06:04:37.500Z,25.33
2023-04-26T06:07:08.269Z,22.67
2023-04-26T06:09:35.006Z,24.15
2023-04-26T06:12:02.404Z,23.00
2023-04-26T06:14:31.079Z,27.63
2023-04-26T06:17:13.086Z,20.73
2023-04-26T06:19:39.919Z,21.10
2023-04-26T06:22:06.671Z,18.40
2023-04-26T06:24:33.978Z,32.10
2023-04-26T06:27:00.709Z,18.50
2023-04-26T06:29:32.909Z,23.90
2023-04-26T06:32:02.850Z,21.10
2023-04-26T06:34:30.394Z,20.15
2023-04-26T06:36:57.091Z,17.23
2023-04-26T06:39:25.733Z,20.88
2023-04-26T06:41:52.650Z,20.63
2023-04-26T06:44:27.321Z,18.42
2023-04-26T06:47:11.348Z,19.58
2023-04-26T06:49:38.716Z,19.65
2023-04-26T06:52:08.242Z,19.15
2023-04-26T06:54:42.739Z,24.33
2023-04-26T06:57:16.573Z,15.00
2023-04-26T06:59:43.095Z,23.60
2023-04-26T07:02:09.664Z,19.60
2023-04-26T07:04:36.772Z,20.15
2023-04-26T07:07:03.814Z,20.50
2023-04-26T07:09:30.619Z,22.38
2023-04-26T07:11:57.472Z,19.95
2023-04-26T07:14:24.530Z,23.42
2023-04-26T07:16:51.210Z,26.80
2023-04-26T07:19:18.230Z,19.52
2023-04-26T07:21:44.898Z,20.80
2023-04-26T07:24:13.496Z,21.58
2023-04-26T07:26:43.802Z,22.17
2023-04-26T07:29:10.463Z,14.77
2023-04-26T07:31:37.117Z,16.10
2023-04-26T07:34:07.091Z,21.92
2023-04-26T07:36:36.849Z,21.48
2023-04-26T07:39:05.250Z,15.10
2023-04-26T07:41:31.929Z,19.13
2023-04-26T07:43:59.066Z,15.98
2023-04-26T07:46:37.286Z,17.77
2023-04-26T07:49:04.228Z,10.00
2023-04-26T07:51:31.586Z,18.02
2023-04-26T07:53:58.193Z,19.00
2023-04-26T07:56:24.919Z,13.45
2023-04-26T07:58:51.694Z,14.38
2023-04-26T08:01:18.508Z,14.90
2023-04-26T08:03:45.585Z,12.52
2023-04-26T08:06:12.776Z,21.15
2023-04-26T08:08:44.756Z,17.25
2023-04-26T08:11:11.562Z,17.58
2023-04-26T08:13:38.343Z,18.20
2023-04-26T08:16:05.898Z,19.50
2023-04-26T08:18:32.663Z,17.65
2023-04-26T08:20:59.330Z,18.83
2023-04-26T08:23:26.271Z,21.33
2023-04-26T08:25:55.268Z,18.80
2023-04-26T08:28:21.989Z,20.95
2023-04-26T08:30:48.585Z,21.10
2023-04-26T08:33:15.284Z,15.98
2023-04-26T08:35:41.856Z,13.65
2023-04-26T08:38:08.702Z,14.23
2023-04-26T08:40:38.912Z,13.55
2023-04-26T08:43:05.754Z,13.90
2023-04-26T08:45:32.978Z,12.75
2023-04-26T08:48:04.781Z,14.98
2023-04-26T08:50:33.620Z,15.23
2023-04-26T08:53:00.410Z,13.55
2023-04-26T08:55:27.056Z,16.63
2023-04-26T08:57:54.030Z,13.85
2023-04-26T09:00:21.464Z,18.08
2023-04-26T09:02:52.582Z,13.82
2023-04-26T09:07:51.211Z,16.20
2023-04-26T09:10:21.967Z,13.95
2023-04-26T09:12:55.182Z,12.02
2023-04-26T09:15:23.067Z,17.40
2023-04-26T09:17:51.452Z,11.25
2023-04-26T09:20:28.860Z,18.33
2023-04-26T09:23:06.670Z,13.85
2023-04-26T09:25:34.499Z,12.50
2023-04-26T09:28:03.646Z,11.85
2023-04-26T09:30:31.395Z,11.13
2023-04-26T09:32:59.681Z,6.53
2023-04-26T09:35:30.235Z,9.68
2023-04-26T09:38:02.318Z,13.77
2023-04-26T09:40:36.872Z,9.80
2023-04-26T09:43:06.496Z,7.22
2023-04-26T09:45:34.571Z,9.98
2023-04-26T09:48:14.630Z,10.82
2023-04-26T09:50:41.292Z,7.20
2023-04-26T09:53:10.548Z,13.20
2023-04-26T09:55:37.341Z,13.50
2023-04-26T09:58:12.903Z,11.20
2023-04-26T10:00:41.891Z,6.82
2023-04-26T10:03:09.865Z,8.40
2023-04-26T10:05:37.232Z,15.00
2023-04-26T10:08:04.021Z,16.02
2023-04-26T10:10:31.917Z,8.85
2023-04-26T10:12:58.837Z,10.48
2023-04-26T10:15:26.334Z,7.70
2023-04-26T10:17:52.976Z,9.05
2023-04-26T10:20:21.256Z,7.82
2023-04-26T10:23:01.040Z,15.43
2023-04-26T10:25:37.757Z,6.30
2023-04-26T10:28:05.079Z,7.22
2023-04-26T10:30:32.293Z,6.68
2023-04-26T10:32:58.858Z,11.43
2023-04-26T10:35:29.270Z,7.68
2023-04-26T10:38:01.869Z,7.33
2023-04-26T10:40:38.637Z,8.90
2023-04-26T10:43:11.336Z,10.32
2023-04-26T10:45:38.917Z,7.90
2023-04-26T10:48:17.332Z,10.68
2023-04-26T10:51:02.350Z,8.52
2023-04-26T10:53:45.438Z,8.02
2023-04-26T10:56:23.953Z,8.77
2023-04-26T11:01:41.547Z,5.85
2023-04-26T11:04:09.743Z,9.98
2023-04-26T11:06:52.182Z,7.70
2023-04-26T11:09:39.737Z,9.20
2023-04-26T11:12:14.196Z,7.82
2023-04-26T11:14:45.428Z,7.82
2023-04-26T11:17:13.195Z,4.15
2023-04-26T11:19:41.432Z,8.68
2023-04-26T11:22:08.405Z,12.82
2023-04-26T11:24:42.610Z,7.13
2023-04-26T11:27:10.240Z,12.10
2023-04-26T11:29:37.223Z,8.50
2023-04-26T11:32:05.263Z,5.85
2023-04-26T11:34:39.313Z,4.43
2023-04-26T11:37:06.707Z,6.07
2023-04-26T11:39:36.831Z,10.45
2023-04-26T11:42:07.948Z,7.50
2023-04-26T11:44:35.364Z,6.18
2023-04-26T11:47:04.265Z,8.80
2023-04-26T11:49:36.271Z,7.72
2023-04-26T11:52:04.833Z,6.07
2023-04-26T11:54:36.610Z,11.02
2023-04-26T11:57:18.616Z,10.07
2023-04-26T11:59:45.882Z,7.78
2023-04-26T12:02:12.692Z,5.18
2023-04-26T12:04:40.988Z,5.50
2023-04-26T12:07:08.382Z,4.97
2023-04-26T12:09:43.440Z,6.18
2023-04-26T12:12:15.577Z,7.70
2023-04-26T12:14:42.345Z,12.85
2023-04-26T12:17:10.387Z,5.13
2023-04-26T12:19:38.374Z,6.18
2023-04-26T12:22:06.804Z,6.97
2023-04-26T12:24:35.820Z,6.03
2023-04-26T12:27:09.066Z,8.57
2023-04-26T12:29:35.726Z,10.52
2023-04-26T12:32:02.880Z,4.10
2023-04-26T12:34:29.915Z,8.10
2023-04-26T12:36:56.559Z,7.90
2023-04-26T12:39:23.210Z,6.85
2023-04-26T12:41:49.896Z,8.23
2023-04-26T12:44:16.590Z,7.75
2023-04-26T12:46:43.533Z,8.07
2023-04-26T12:49:10.212Z,8.07
2023-04-26T12:51:39.536Z,7.60
2023-04-26T12:54:06.085Z,5.38
2023-04-26T12:56:33.806Z,6.10
2023-04-26T12:59:00.441Z,6.13
2023-04-26T13:01:27.244Z,4.78
2023-04-26T13:03:55.940Z,8.65
2023-04-26T13:06:22.717Z,8.00
2023-04-26T13:08:49.381Z,7.13
2023-04-26T13:11:16.550Z,9.82
2023-04-26T13:13:44.687Z,9.57
2023-04-26T13:16:13.015Z,7.35
2023-04-26T13:18:40.734Z,24.90
2023-04-26T13:21:07.534Z,6.40
2023-04-26T13:23:34.318Z,8.02
2023-04-26T13:26:01.273Z,11.68
2023-04-26T13:28:28.368Z,6.93
2023-04-26T13:30:55.974Z,8.55
2023-04-26T13:33:22.877Z,8.52
2023-04-26T13:35:49.557Z,7.35
2023-04-26T13:38:16.939Z,4.18
2023-04-26T13:40:44.163Z,10.68
2023-04-26T13:43:10.923Z,8.02
2023-04-26T13:45:37.526Z,12.57
2023-04-26T13:48:04.530Z,6.30
2023-04-26T13:50:31.245Z,8.15
2023-04-26T13:52:58.120Z,7.55
2023-04-26T13:55:25.751Z,9.32
2023-04-26T13:57:52.487Z,7.88
2023-04-26T14:00:19.441Z,5.53
2023-04-26T14:02:47.367Z,7.32
2023-04-26T14:05:14.228Z,5.05
2023-04-26T14:07:41.563Z,6.75
2023-04-26T14:10:08.991Z,8.05
2023-04-26T14:12:35.898Z,8.98
2023-04-26T14:15:05.600Z,7.50
2023-04-26T14:17:32.875Z,6.65
2023-04-26T14:19:59.674Z,7.22
2023-04-26T14:22:27.054Z,8.05
2023-04-26T14:24:53.625Z,8.77
2023-04-26T14:27:20.440Z,8.38
2023-04-26T14:29:49.264Z,10.10
2023-04-26T14:32:32.271Z,9.13
2023-04-26T14:34:58.810Z,8.63
2023-04-26T14:37:28.307Z,6.65
2023-04-26T14:39:54.952Z,6.43
2023-04-26T14:42:21.709Z,5.85
2023-04-26T14:44:48.369Z,9.68
2023-04-26T14:47:15.039Z,6.70
2023-04-26T14:49:41.569Z,10.43
2023-04-26T14:52:08.254Z,6.10
2023-04-26T14:54:38.995Z,10.63
2023-04-26T14:57:05.733Z,7.18
2023-04-26T14:59:32.336Z,12.23
2023-04-26T15:01:59.109Z,8.90
2023-04-26T15:04:30.288Z,8.52
2023-04-26T15:09:23.887Z,8.85
2023-04-26T15:11:50.622Z,6.95
2023-04-26T15:14:17.179Z,6.78
2023-04-26T15:16:45.169Z,8.05
2023-04-26T15:19:11.988Z,7.25
2023-04-26T15:21:38.560Z,14.43
2023-04-26T15:24:05.705Z,9.13
2023-04-26T15:26:32.925Z,12.55
2023-04-26T15:28:59.580Z,13.10
2023-04-26T15:31:26.889Z,6.75
2023-04-26T15:33:59.352Z,13.80
2023-04-26T15:36:26.219Z,8.50
2023-04-26T15:38:52.939Z,9.68
2023-04-26T15:41:19.842Z,11.13
2023-04-26T15:43:46.511Z,11.88
2023-04-26T15:46:14.890Z,8.52
2023-04-26T15:48:41.551Z,11.05
2023-04-26T15:51:22.680Z,6.28
2023-04-26T15:53:50.571Z,7.75
2023-04-26T15:56:18.055Z,8.63
2023-04-26T15:58:45.774Z,7.93
2023-04-26T16:01:12.578Z,9.95
2023-04-26T16:03:39.642Z,5.78
2023-04-26T16:06:07.089Z,6.85
2023-04-26T16:11:05.993Z,14.00
2023-04-26T16:13:33.600Z,8.52
2023-04-26T16:16:00.677Z,6.68
2023-04-26T16:18:27.289Z,6.53
2023-04-26T16:21:03.340Z,7.35
2023-04-26T16:23:31.670Z,10.75
2023-04-26T16:25:58.734Z,8.43
2023-04-26T16:28:25.302Z,4.30
2023-04-26T16:30:52.068Z,9.55
2023-04-26T16:33:21.199Z,7.60
2023-04-26T16:35:53.152Z,9.52
2023-04-26T16:38:20.095Z,7.07
2023-04-26T16:41:01.282Z,6.85
2023-04-26T16:43:29.316Z,10.77
2023-04-26T16:46:06.304Z,11.15
2023-04-26T16:48:34.394Z,9.60
2023-04-26T16:51:04.130Z,10.18
2023-04-26T16:53:33.185Z,10.93
2023-04-26T16:56:00.353Z,8.38
2023-04-26T16:58:27.001Z,10.05
2023-04-26T17:00:53.826Z,9.70
2023-04-26T17:03:21.357Z,5.03
2023-04-26T17:05:48.559Z,9.57
2023-04-26T17:08:19.557Z,10.98
2023-04-26T17:10:48.010Z,4.40
2023-04-26T17:13:15.475Z,8.07
2023-04-26T17:15:42.342Z,8.65
2023-04-26T17:18:09.548Z,8.25
2023-04-26T17:20:37.115Z,8.48
2023-04-26T17:23:04.336Z,14.32
2023-04-26T17:25:31.420Z,10.30
2023-04-26T17:27:58.437Z,6.53
2023-04-26T17:30:25.319Z,11.05
2023-04-26T17:32:52.227Z,10.43
2023-04-26T17:35:18.856Z,15.02
2023-04-26T17:37:52.331Z,9.43
2023-04-26T17:40:19.111Z,8.85
2023-04-26T17:42:46.430Z,8.52
2023-04-26T17:45:14.197Z,7.78
2023-04-26T17:47:45.998Z,8.63
2023-04-26T17:50:12.664Z,11.15
2023-04-26T17:52:39.607Z,9.07
2023-04-26T17:55:08.345Z,9.48
2023-04-26T17:57:36.058Z,9.23
2023-04-26T18:00:15.812Z,12.77
2023-04-26T18:02:43.743Z,8.63
2023-04-26T18:05:10.498Z,3.97
2023-04-26T18:07:37.139Z,11.40
2023-04-26T18:10:04.193Z,6.85
2023-04-26T18:12:33.806Z,13.63
2023-04-26T18:15:00.330Z,7.05
2023-04-26T18:17:28.088Z,8.98
2023-04-26T18:19:54.825Z,11.18
2023-04-26T18:22:21.440Z,9.70
2023-04-26T18:24:48.162Z,8.93
2023-04-26T18:27:15.003Z,8.77
2023-04-26T18:29:41.878Z,10.25
2023-04-26T18:32:08.522Z,7.03
2023-04-26T18:34:36.190Z,8.57
2023-04-26T18:37:02.859Z,18.35
2023-04-26T18:39:30.319Z,12.85
2023-04-26T18:41:57.188Z,11.32
2023-04-26T18:44:23.974Z,12.45
2023-04-26T18:46:55.574Z,13.40
2023-04-26T18:49:23.246Z,10.88
2023-04-26T18:51:50.053Z,10.50
2023-04-26T18:54:16.719Z,15.55
2023-04-26T18:56:43.966Z,6.90
2023-04-26T18:59:10.624Z,13.93
2023-04-26T19:01:37.595Z,8.38
2023-04-26T19:04:04.460Z,12.75
2023-04-26T19:06:31.653Z,9.55
2023-04-26T19:08:59.003Z,8.18
2023-04-26T19:11:25.677Z,10.95
2023-04-26T19:13:52.260Z,12.27
2023-04-26T19:16:19.042Z,12.93
2023-04-26T19:18:47.230Z,12.60
2023-04-26T19:21:13.979Z,8.35
2023-04-26T19:23:40.789Z,15.40
2023-04-26T19:26:08.938Z,13.18
2023-04-26T19:28:35.857Z,7.05
2023-04-26T19:31:02.601Z,9.52
2023-04-26T19:33:29.965Z,11.23
2023-04-26T19:35:57.035Z,14.25
2023-04-26T19:38:24.921Z,14.10
2023-04-26T19:40:52.060Z,15.63
2023-04-26T19:43:18.814Z,13.13
2023-04-26T19:45:45.930Z,8.85
2023-04-26T19:48:13.381Z,14.77
2023-04-26T19:50:46.087Z,8.32
2023-04-26T19:53:14.079Z,9.45
2023-04-26T19:55:42.262Z,14.02
2023-04-26T19:58:10.414Z,13.43
2023-04-26T20:00:39.019Z,12.35
2023-04-26T20:03:06.448Z,8.15
2023-04-26T20:05:34.152Z,10.88
2023-04-26T20:08:01.740Z,12.98
2023-04-26T20:10:33.573Z,10.25
2023-04-26T20:13:00.940Z,17.13
2023-04-26T20:15:28.081Z,14.10
2023-04-26T20:17:55.248Z,10.48
2023-04-26T20:20:22.325Z,10.65
2023-04-26T20:22:49.080Z,14.20
2023-04-26T20:25:15.903Z,12.05
2023-04-26T20:27:42.643Z,13.32
2023-04-26T20:30:10.127Z,11.45
2023-04-26T20:32:36.795Z,12.43
2023-04-26T20:35:20.316Z,10.15
2023-04-26T20:37:47.723Z,12.55
2023-04-26T20:40:14.693Z,13.38
2023-04-26T20:42:41.452Z,17.48
2023-04-26T20:45:08.939Z,11.75
2023-04-26T20:47:37.078Z,16.08
2023-04-26T20:50:06.642Z,16.05
2023-04-26T20:52:34.407Z,18.03
2023-04-26T20:55:01.973Z,18.42
2023-04-26T20:57:29.168Z,17.02
2023-04-26T20:59:55.900Z,14.00
2023-04-26T21:02:22.706Z,13.77
2023-04-26T21:04:50.056Z,25.67
2023-04-26T21:07:16.791Z,13.98
2023-04-26T21:09:44.047Z,14.95
2023-04-26T21:12:11.066Z,15.95
2023-04-26T21:14:37.924Z,15.80
2023-04-26T21:17:05.689Z,27.13
2023-04-26T21:19:32.522Z,13.05
2023-04-26T21:21:59.285Z,11.48
2023-04-26T21:24:26.062Z,15.80
2023-04-26T21:26:52.720Z,17.85
2023-04-26T21:29:19.418Z,16.20
2023-04-26T21:31:46.223Z,14.35
2023-04-26T21:34:12.984Z,17.10
2023-04-26T21:36:39.864Z,14.10
2023-04-26T21:39:06.830Z,15.30
2023-04-26T21:41:34.008Z,15.55
2023-04-26T21:44:00.697Z,16.63
2023-04-26T21:46:27.478Z,18.98
2023-04-26T21:48:54.771Z,19.55
2023-04-26T21:51:21.570Z,22.27
2023-04-26T21:53:48.388Z,16.30
2023-04-26T21:56:15.584Z,14.02
2023-04-26T21:58:42.679Z,15.68
2023-04-26T22:01:11.601Z,17.00
2023-04-26T22:03:39.312Z,22.15
2023-04-26T22:06:07.211Z,14.88
2023-04-26T22:08:34.655Z,15.52
2023-04-26T22:11:02.493Z,18.10
2023-04-26T22:13:29.294Z,13.13
2023-04-26T22:15:56.017Z,13.82
2023-04-26T22:18:23.013Z,15.25
2023-04-26T22:20:49.644Z,20.00
2023-04-26T22:23:16.262Z,20.35
2023-04-26T22:25:42.811Z,17.13
2023-04-26T22:28:09.461Z,16.25
2023-04-26T22:30:36.172Z,16.80
2023-04-26T22:33:02.999Z,14.75
2023-04-26T22:35:30.022Z,18.30
2023-04-26T22:37:58.956Z,29.70
2023-04-26T22:40:25.911Z,19.63
2023-04-26T22:42:52.750Z,19.00
2023-04-26T22:45:19.566Z,21.83
2023-04-26T22:47:46.265Z,16.20
2023-04-26T22:50:13.023Z,15.85
2023-04-26T22:52:39.832Z,18.15
2023-04-26T22:55:07.164Z,21.30
2023-04-26T22:57:33.841Z,20.75
2023-04-26T23:00:02.072Z,17.30
2023-04-26T23:02:29.064Z,21.00
2023-04-26T23:04:55.868Z,19.45
2023-04-26T23:07:23.270Z,18.20
2023-04-26T23:09:51.014Z,18.52
2023-04-26T23:12:21.395Z,19.17
2023-04-26T23:14:48.608Z,17.90
2023-04-26T23:17:15.252Z,16.35
2023-04-26T23:19:42.619Z,21.67
2023-04-26T23:22:09.311Z,16.75
2023-04-26T23:24:36.412Z,16.50
2023-04-26T23:27:03.798Z,17.92
2023-04-26T23:29:31.145Z,26.20
2023-04-26T23:31:58.099Z,18.35
2023-04-26T23:34:24.936Z,17.05
2023-04-26T23:36:51.541Z,17.10
2023-04-26T23:39:18.330Z,18.50
2023-04-26T23:41:45.148Z,21.20
2023-04-26T23:44:11.945Z,21.70
2023-04-26T23:46:38.983Z,17.27
2023-04-26T23:49:05.557Z,16.75
2023-04-26T23:51:32.365Z,16.75
2023-04-26T23:53:59.092Z,20.15
2023-04-26T23:56:25.749Z,16.75
2023-04-26T23:58:52.452Z,18.45
